Airfield :
LOGIN :

Register | Disclaimer

   EN    FR    IT 

 










Legend :    VFR   Marginal VFR   IFR   Intensive IFR   Very Intensive IFR
Visi :
Ceiling :
>= 8 km
>= 3000ft
5 to 8 km
1000 to 3000 ft
1500m to 5 km
500 to 1000 ft
800 to 1500m
200 to 500 ft
< 800m
< 200 ft
Symbols :   Thunderstorms  Fog  Heavy snow  Heavy precipitations  Wind > 20 kt
SIGMETs :     Misc.  Thunderstorms  Icing  Turbulence  Mountain Waves  Volcanic Ashes






- Airport Elevation : 220 ft
- IATA code : CWL


EGFF - Cardiff Rhoose

CURRENT METAR :
  • 050920Z AUTO 17005KT 140V200 9999 SCT028 BKN033 OVC040 19/16 Q1010

EXPIRED METARs :
  • 050850Z AUTO 13007KT 9999 BKN024 OVC040 19/16 Q1011
  • 050820Z AUTO 21006KT 9999 BKN024 19/15 Q1011
  • 050750Z AUTO 21009KT 9999 BKN019 BKN025 20/16 Q1011
  • 050720Z AUTO 21006KT 170V240 9999 BKN019 OVC024 19/16 Q1011
  • 050650Z AUTO 21007KT 180V250 9999 BKN019 18/16 Q1011

TAF TAF EGFF
Valid from the 05 at 06:00 until the 06 at 06:00 UTC


050456Z 0506/0606 22014KT 9999 SCT018
TEMPO 0506/0508 BKN014
TEMPO 0514/0517 7000 SHRA BKN012
PROB30
TEMPO 0514/0517 4000 +SHRA RADZ BKN009
PROB30
TEMPO 0517/0606 BKN009
BECMG 0600/0603 VRB03KT
ATIS : +44 1446 729 319



MET'MAP, your aeronautical weather chart ! - Copyright ORBIFLY December 2007 - Disclaimer

ORBIFLY MET'MAP TEAM :

Programming & Development : Alexandra Zaïnal
Concept & original design : Baudouin d'Aumeries
Assistance for programming : Marc-Olivier Méhu
Technical & hardware support : Manuel Goepfert

Contact : metmap@orbifly.com




SOURCES & CREDITS :

   NOAA